Time;durP1;ratioP1;P1;durP2;ratioP2;P2;SDS_P1;SDS_P2;PMS_P1;PMS_P2;Temp;Humidity;BMP_temperature;BMP_pressure;BME280_temperature;BME280_humidity;BME280_pressure;Samples;Min_cycle;Max_cycle;Signal;HPM_P1;HPM_P2
2023/09/11 00:00:00;;;;;;;5.43;4.93;;;;;;;20.90;54.89;101359.19;4967784;28;103678;-59
2023/09/11 00:02:26;;;;;;;5.93;5.33;;;;;;;20.85;54.99;101358.03;4967164;28;96949;-61
2023/09/11 00:04:52;;;;;;;5.63;5.20;;;;;;;20.84;55.18;101353.72;4966515;28;97237;-62
2023/09/11 00:07:17;;;;;;;5.70;5.17;;;;;;;20.81;55.16;101349.25;4968243;28;96972;-57
2023/09/11 00:09:42;;;;;;;4.90;4.50;;;;;;;20.78;54.95;101347.53;4963309;28;98720;-58
2023/09/11 00:12:08;;;;;;;6.20;5.30;;;;;;;20.75;55.23;101343.00;4965581;28;97253;-60
2023/09/11 00:14:33;;;;;;;5.63;5.07;;;;;;;20.75;55.33;101348.59;4962476;28;97258;-60
2023/09/11 00:16:59;;;;;;;5.70;5.30;;;;;;;20.72;55.38;101348.97;4969229;28;97167;-60
2023/09/11 00:19:24;;;;;;;5.77;5.30;;;;;;;20.68;55.39;101343.72;4971250;28;97615;-60
2023/09/11 00:21:49;;;;;;;6.07;5.57;;;;;;;20.68;55.45;101340.16;4970629;28;97891;-59
2023/09/11 00:24:14;;;;;;;6.40;5.80;;;;;;;20.67;55.52;101338.66;4967727;28;106815;-60
2023/09/11 00:26:40;;;;;;;5.93;5.53;;;;;;;20.63;55.50;101346.66;4968467;28;97250;-64
2023/09/11 00:29:05;;;;;;;5.83;5.37;;;;;;;20.60;55.41;101337.28;4965610;28;97018;-60
2023/09/11 00:31:31;;;;;;;6.30;5.80;;;;;;;20.60;55.33;101328.91;5009405;22;97551;-75
2023/09/11 00:33:56;;;;;;;6.33;5.83;;;;;;;20.56;55.38;101331.31;4989089;28;100619;-76
2023/09/11 00:36:21;;;;;;;5.60;5.20;;;;;;;20.53;55.48;101326.78;4978584;28;97555;-76
2023/09/11 00:38:49;;;;;;;6.80;6.30;;;;;;;20.50;55.64;101327.91;4981008;28;97425;-76
2023/09/11 00:41:15;;;;;;;6.73;6.13;;;;;;;20.47;55.54;101320.59;4982420;28;100741;-76
2023/09/11 00:43:40;;;;;;;6.63;6.03;;;;;;;20.44;55.63;101324.50;4980934;28;96909;-76
2023/09/11 00:46:06;;;;;;;6.30;5.80;;;;;;;20.41;55.54;101308.81;4980667;28;96796;-75
2023/09/11 00:48:32;;;;;;;5.77;5.17;;;;;;;20.38;55.81;101320.34;4983420;28;97104;-75
2023/09/11 00:50:57;;;;;;;7.10;6.40;;;;;;;20.39;55.71;101316.97;4980563;28;99393;-75
2023/09/11 00:53:25;;;;;;;6.77;5.87;;;;;;;20.34;55.63;101314.31;4985684;28;97268;-76
2023/09/11 00:55:50;;;;;;;6.90;6.30;;;;;;;20.27;55.85;101303.81;4984372;28;96763;-76
2023/09/11 00:58:17;;;;;;;5.97;5.50;;;;;;;20.23;55.78;101312.53;4981902;28;96981;-76
2023/09/11 01:00:44;;;;;;;6.00;5.50;;;;;;;20.21;56.02;101306.75;4980311;28;98911;-75
2023/09/11 01:03:11;;;;;;;5.17;4.77;;;;;;;20.19;55.85;101303.72;4982812;28;100592;-76
2023/09/11 01:05:38;;;;;;;5.10;4.70;;;;;;;20.16;56.16;101313.16;4980559;28;97149;-76
2023/09/11 01:08:03;;;;;;;5.77;5.33;;;;;;;20.16;56.07;101297.16;4981343;28;97165;-76
2023/09/11 01:10:29;;;;;;;6.27;5.67;;;;;;;20.12;55.98;101298.78;4977749;28;99302;-75
2023/09/11 01:12:55;;;;;;;5.67;5.27;;;;;;;20.09;55.73;101295.03;4984486;28;97515;-76
2023/09/11 01:15:24;;;;;;;5.50;5.10;;;;;;;20.04;55.79;101281.22;4977786;28;97325;-76
2023/09/11 01:18:22;;;;;;;6.33;5.80;;;;;;;20.00;56.46;101280.78;4990320;28;97010;-77
2023/09/11 01:21:10;;;;;;;5.50;5.10;;;;;;;19.96;56.70;101283.19;4979572;28;97251;-75
2023/09/11 01:23:58;;;;;;;5.83;5.33;;;;;;;19.90;56.52;101274.91;4978752;28;97278;-76
2023/09/11 01:26:37;;;;;;;6.17;5.60;;;;;;;19.89;56.67;101269.88;4981394;28;97452;-75
2023/09/11 01:29:34;;;;;;;6.03;5.53;;;;;;;19.87;56.27;101278.06;4983472;28;97045;-76
2023/09/11 01:32:05;;;;;;;5.30;4.80;;;;;;;19.83;56.06;101272.06;4969689;28;98902;-75
2023/09/11 01:34:30;;;;;;;6.00;5.50;;;;;;;19.78;56.06;101270.88;4979214;28;97929;-75
2023/09/11 01:36:56;;;;;;;6.10;5.60;;;;;;;19.70;56.07;101272.09;4979167;28;97363;-75
2023/09/11 01:39:21;;;;;;;6.37;5.87;;;;;;;19.65;56.32;101279.31;4982556;28;97122;-75
2023/09/11 01:41:48;;;;;;;6.47;5.90;;;;;;;19.65;56.58;101279.31;4977238;28;97981;-75
2023/09/11 01:44:32;;;;;;;6.20;5.70;;;;;;;19.65;57.07;101272.97;4980768;28;97680;-75
2023/09/11 01:47:03;;;;;;;6.60;6.00;;;;;;;19.57;56.34;101261.69;4979938;28;96851;-73
2023/09/11 01:49:55;;;;;;;4.90;4.57;;;;;;;19.50;57.38;101265.16;4984357;28;97331;-71
2023/09/11 01:52:24;;;;;;;6.30;5.70;;;;;;;19.50;56.72;101278.34;4982158;28;97493;-72
2023/09/11 01:54:55;;;;;;;6.50;6.00;;;;;;;19.50;56.72;101281.16;4980170;28;97437;-73
2023/09/11 01:57:30;;;;;;;6.87;6.23;;;;;;;19.47;57.07;101269.03;4980996;28;99354;-73
2023/09/11 01:59:55;;;;;;;6.47;5.93;;;;;;;19.46;56.82;101261.19;4982122;28;97486;-75
2023/09/11 02:02:23;;;;;;;6.10;5.60;;;;;;;19.48;56.70;101269.78;4981413;28;98237;-72
2023/09/11 02:04:55;;;;;;;6.00;5.50;;;;;;;19.44;57.05;101276.44;4980437;28;97408;-73
2023/09/11 02:07:23;;;;;;;6.33;5.83;;;;;;;19.45;56.89;101279.97;4981010;28;97095;-72
2023/09/11 02:09:54;;;;;;;6.17;5.67;;;;;;;19.43;57.17;101266.56;4978442;28;97583;-73
2023/09/11 02:12:26;;;;;;;7.07;6.27;;;;;;;19.41;57.12;101273.97;4980222;28;98543;-72
2023/09/11 02:14:51;;;;;;;7.00;6.27;;;;;;;19.40;56.94;101266.88;4979042;28;97256;-76
2023/09/11 02:20:20;;;;;;;5.40;5.00;;;;;;;19.37;57.15;101254.03;4942081;28;97044;-72
2023/09/11 02:22:48;;;;;;;7.10;6.50;;;;;;;19.33;57.17;101259.88;4976966;28;97450;-72
2023/09/11 02:25:40;;;;;;;6.10;5.60;;;;;;;19.28;57.73;101248.84;4998170;28;100701;-73
2023/09/11 02:28:06;;;;;;;6.20;5.63;;;;;;;19.27;57.02;101255.72;4957221;28;97705;-75
2023/09/11 02:31:04;;;;;;;6.70;6.00;;;;;;;19.25;57.78;101252.72;4956066;28;97502;-73
2023/09/11 02:33:39;;;;;;;6.27;5.67;;;;;;;19.24;57.43;101246.38;4924150;28;98810;-72
2023/09/11 02:36:04;;;;;;;6.17;5.67;;;;;;;19.24;56.86;101251.94;4978836;28;106910;-75
2023/09/11 02:38:31;;;;;;;6.77;6.17;;;;;;;19.25;56.90;101256.25;4979434;28;97316;-75
2023/09/11 02:41:02;;;;;;;6.87;6.27;;;;;;;19.24;57.32;101240.78;4978507;28;97099;-73
2023/09/11 02:43:43;;;;;;;5.87;5.37;;;;;;;19.21;57.56;101253.03;4985198;28;97964;-72
2023/09/11 02:46:12;;;;;;;7.03;6.43;;;;;;;19.20;57.18;101242.41;4979259;28;97445;-72
2023/09/11 02:48:45;;;;;;;6.13;5.53;;;;;;;19.18;57.32;101245.75;4985834;28;97400;-73
2023/09/11 02:51:15;;;;;;;5.97;5.47;;;;;;;19.17;57.38;101240.72;4977902;28;98289;-73
2023/09/11 02:53:40;;;;;;;6.10;5.60;;;;;;;19.14;57.12;101236.94;4929614;22;100472;-54
2023/09/11 02:56:06;;;;;;;5.77;5.10;;;;;;;19.13;57.19;101245.88;4904310;28;97540;-54
2023/09/11 02:58:34;;;;;;;6.33;5.80;;;;;;;19.11;57.27;101240.81;4902640;28;97109;-57
2023/09/11 03:01:04;;;;;;;6.03;5.53;;;;;;;19.11;57.31;101231.72;4903253;28;97349;-55
2023/09/11 03:03:30;;;;;;;6.00;5.40;;;;;;;19.10;57.40;101233.75;4904967;28;98672;-54
2023/09/11 03:06:01;;;;;;;6.43;5.93;;;;;;;19.08;57.27;101229.97;4902083;28;97445;-55
2023/09/11 03:08:27;;;;;;;6.07;5.50;;;;;;;19.04;57.41;101229.56;4904068;28;97386;-54
2023/09/11 03:10:53;;;;;;;6.40;5.80;;;;;;;19.03;57.41;101253.91;4902276;28;97320;-54
2023/09/11 03:13:18;;;;;;;6.73;6.13;;;;;;;19.03;57.32;101219.69;4905169;28;98119;-54
2023/09/11 03:15:44;;;;;;;5.97;5.40;;;;;;;19.00;57.46;101224.28;4898990;28;100164;-55
2023/09/11 03:18:09;;;;;;;6.03;5.53;;;;;;;18.98;57.56;101224.06;4898643;28;97032;-56
2023/09/11 03:20:35;;;;;;;5.87;5.37;;;;;;;18.99;57.56;101224.84;4900909;28;96954;-55
2023/09/11 03:23:00;;;;;;;5.87;5.37;;;;;;;18.96;57.50;101215.50;4903497;28;97143;-58
2023/09/11 03:25:31;;;;;;;6.13;5.53;;;;;;;18.94;57.29;101211.75;4901837;28;97067;-54
2023/09/11 03:27:57;;;;;;;6.43;5.83;;;;;;;18.93;57.55;101227.75;4896591;28;96848;-53
2023/09/11 03:30:22;;;;;;;5.50;5.03;;;;;;;18.89;57.64;101205.00;4899063;28;97699;-54
2023/09/11 03:32:47;;;;;;;8.87;5.63;;;;;;;18.88;57.44;101206.28;4904243;28;96979;-54
2023/09/11 03:35:13;;;;;;;6.50;6.00;;;;;;;18.86;57.42;101206.06;4899831;28;97737;-54
2023/09/11 03:37:38;;;;;;;5.80;5.30;;;;;;;18.86;57.38;101217.22;4901821;28;97059;-55
2023/09/11 03:40:07;;;;;;;6.43;5.83;;;;;;;18.84;57.61;101210.69;4903259;28;97210;-55
2023/09/11 03:42:34;;;;;;;5.47;4.97;;;;;;;18.81;57.57;101209.72;4901592;28;96986;-54
2023/09/11 03:45:00;;;;;;;4.93;4.53;;;;;;;18.80;57.59;101211.00;4897709;28;99364;-55
2023/09/11 03:47:25;;;;;;;4.90;4.50;;;;;;;18.79;57.73;101215.06;4900408;28;96977;-54
2023/09/11 03:49:51;;;;;;;5.33;4.93;;;;;;;18.78;57.94;101208.00;4904853;28;96855;-56
2023/09/11 03:52:16;;;;;;;6.80;6.20;;;;;;;18.77;57.63;101208.53;4888321;28;99442;-55
2023/09/11 03:54:41;;;;;;;5.80;5.23;;;;;;;18.75;57.73;101208.31;4900212;28;97671;-55
2023/09/11 03:57:07;;;;;;;5.57;5.07;;;;;;;18.74;57.62;101210.34;4900375;28;97226;-55
2023/09/11 03:59:32;;;;;;;5.07;4.57;;;;;;;18.73;57.77;101194.16;4901062;28;97211;-56
2023/09/11 04:01:57;;;;;;;5.10;4.70;;;;;;;18.70;57.82;101198.78;4900127;28;99790;-55
2023/09/11 04:04:23;;;;;;;5.40;4.90;;;;;;;18.70;57.69;101195.97;4900072;28;98903;-54
2023/09/11 04:06:48;;;;;;;5.10;4.70;;;;;;;18.68;57.78;101196.53;4901145;28;97328;-56
2023/09/11 04:09:13;;;;;;;4.83;4.47;;;;;;;18.67;57.88;101189.44;4893260;28;97241;-55
2023/09/11 04:11:39;;;;;;;7.10;5.50;;;;;;;18.66;57.92;101187.19;4898782;28;97402;-55
2023/09/11 04:14:04;;;;;;;4.97;4.50;;;;;;;18.63;57.81;101189.00;4900363;28;97841;-54
2023/09/11 04:16:29;;;;;;;5.27;4.87;;;;;;;18.62;58.14;101195.91;4904668;28;98517;-55
2023/09/11 04:18:55;;;;;;;5.63;5.17;;;;;;;18.61;57.69;101190.84;4901743;28;97349;-54
2023/09/11 04:21:20;;;;;;;4.57;4.17;;;;;;;18.59;57.87;101196.94;4899935;28;106210;-55
2023/09/11 04:23:46;;;;;;;4.80;4.40;;;;;;;18.56;57.87;101186.88;4899845;28;97959;-55
2023/09/11 04:26:11;;;;;;;5.60;5.10;;;;;;;18.54;57.84;101188.72;4904549;28;97362;-55
2023/09/11 04:28:37;;;;;;;4.80;4.40;;;;;;;18.50;58.16;101189.00;4900492;28;97200;-56
2023/09/11 04:31:03;;;;;;;5.30;4.80;;;;;;;18.49;58.10;101190.31;4899108;28;97406;-55
2023/09/11 04:33:28;;;;;;;5.77;5.20;;;;;;;18.51;58.20;101184.19;4900503;28;97414;-55
2023/09/11 04:35:53;;;;;;;5.90;5.30;;;;;;;18.50;58.24;101185.50;4905068;28;96669;-57
2023/09/11 04:38:19;;;;;;;6.27;5.67;;;;;;;18.50;58.35;101185.50;4903676;28;97426;-54
2023/09/11 04:40:44;;;;;;;5.60;4.93;;;;;;;18.51;58.34;101184.94;4901385;28;97817;-55
2023/09/11 04:43:10;;;;;;;6.20;5.20;;;;;;;18.50;58.18;101183.44;4898546;28;106660;-56
2023/09/11 04:45:35;;;;;;;6.07;5.47;;;;;;;18.52;58.26;101182.91;4902796;28;97050;-55
2023/09/11 04:48:00;;;;;;;6.53;5.30;;;;;;;18.51;58.21;101182.16;4900148;28;97045;-55
2023/09/11 04:50:26;;;;;;;6.63;5.93;;;;;;;18.51;58.14;101184.19;4898873;28;100390;-57
2023/09/11 04:52:53;;;;;;;6.30;5.80;;;;;;;18.48;58.36;101182.47;4899723;28;98378;-55
2023/09/11 04:55:19;;;;;;;6.30;5.70;;;;;;;18.46;58.25;101176.69;4898299;28;96971;-56
2023/09/11 04:57:44;;;;;;;6.40;5.50;;;;;;;18.47;58.45;101178.19;4902396;28;96912;-55
2023/09/11 05:00:10;;;;;;;6.00;5.40;;;;;;;18.45;58.32;101173.16;4899907;28;98206;-54
2023/09/11 05:02:36;;;;;;;6.07;5.57;;;;;;;18.45;58.29;101177.97;4902475;28;96999;-56
2023/09/11 05:05:03;;;;;;;6.73;6.17;;;;;;;18.44;58.45;101173.66;4900614;28;97117;-58
2023/09/11 05:07:29;;;;;;;6.60;6.00;;;;;;;18.42;58.35;101176.22;4900949;28;97058;-57
2023/09/11 05:09:54;;;;;;;7.20;6.50;;;;;;;18.38;58.52;101184.91;4901666;28;98443;-55
2023/09/11 05:12:19;;;;;;;6.60;6.00;;;;;;;18.40;58.68;101192.72;4899238;28;98845;-55
2023/09/11 05:14:45;;;;;;;7.57;6.77;;;;;;;18.41;58.72;101188.66;4901091;28;96855;-56
2023/09/11 05:17:10;;;;;;;8.10;7.30;;;;;;;18.40;58.38;101179.56;4901908;28;96794;-55
2023/09/11 05:19:35;;;;;;;7.37;6.60;;;;;;;18.39;58.66;101180.09;4900549;28;108198;-56
2023/09/11 05:22:01;;;;;;;7.60;6.90;;;;;;;18.36;58.68;101181.16;4899609;28;107105;-56
2023/09/11 05:24:26;;;;;;;7.23;6.50;;;;;;;18.35;58.65;101193.56;4905548;28;97355;-55
2023/09/11 05:26:51;;;;;;;8.00;6.83;;;;;;;18.35;58.83;101190.78;4901980;28;97501;-55
2023/09/11 05:29:17;;;;;;;8.63;7.73;;;;;;;18.36;58.85;101183.94;4902173;28;97159;-56
2023/09/11 05:31:42;;;;;;;8.87;7.50;;;;;;;18.37;58.86;101188.97;4900995;28;97446;-56
2023/09/11 05:34:07;;;;;;;7.60;6.90;;;;;;;18.36;58.95;101183.94;4898326;28;96739;-56
2023/09/11 05:36:33;;;;;;;8.30;7.50;;;;;;;18.37;58.99;101186.19;4904194;28;96763;-55
2023/09/11 05:38:58;;;;;;;8.33;6.87;;;;;;;18.40;59.02;101193.47;4902039;28;98011;-55
2023/09/11 05:41:25;;;;;;;8.90;8.00;;;;;;;18.42;59.12;101182.56;4899307;28;106640;-56
2023/09/11 05:43:51;;;;;;;8.50;7.70;;;;;;;18.43;58.99;101181.28;4900854;28;97404;-54
2023/09/11 05:46:17;;;;;;;18.27;8.20;;;;;;;18.44;59.07;101190.38;4900931;28;96734;-54
2023/09/11 05:48:42;;;;;;;8.07;7.23;;;;;;;18.45;58.96;101177.97;4900854;28;96977;-57
2023/09/11 05:51:07;;;;;;;8.70;7.03;;;;;;;18.46;59.20;101180.22;4898961;28;98624;-54
2023/09/11 05:53:33;;;;;;;11.60;7.67;;;;;;;18.50;59.23;101182.72;4903186;28;101155;-54
2023/09/11 05:55:58;;;;;;;12.03;7.60;;;;;;;18.51;59.19;101176.59;4902835;28;100637;-55
2023/09/11 05:58:24;;;;;;;9.53;6.87;;;;;;;18.56;59.30;101181.31;4898347;28;97574;-54
2023/09/11 06:00:51;;;;;;;10.17;7.10;;;;;;;18.56;59.28;101184.09;4899110;28;99357;-54
2023/09/11 06:03:16;;;;;;;7.73;6.20;;;;;;;18.58;59.09;101177.97;4899786;28;97123;-54
2023/09/11 06:05:42;;;;;;;10.57;6.60;;;;;;;18.60;59.25;101180.97;4900463;28;97545;-56
2023/09/11 06:08:07;;;;;;;7.67;6.83;;;;;;;18.61;59.25;101174.88;4897983;28;99946;-55
2023/09/11 06:10:33;;;;;;;12.20;6.90;;;;;;;18.61;59.46;101177.66;4904803;28;96938;-55
2023/09/11 06:12:59;;;;;;;8.07;6.90;;;;;;;18.65;59.41;101172.50;4902012;28;97167;-55
2023/09/11 06:15:25;;;;;;;10.83;7.10;;;;;;;18.68;59.52;101174.22;4901800;28;98520;-55
2023/09/11 06:17:50;;;;;;;13.43;7.10;;;;;;;18.71;59.33;101175.19;4903789;28;97855;-55
2023/09/11 06:20:17;;;;;;;7.87;7.17;;;;;;;18.74;59.66;101179.69;4902888;28;98857;-55
2023/09/11 06:22:43;;;;;;;7.70;7.00;;;;;;;18.77;59.58;101181.41;4906490;28;97029;-55
2023/09/11 06:25:08;;;;;;;8.93;6.80;;;;;;;18.81;59.78;101179.03;4904088;28;97577;-54
2023/09/11 06:27:34;;;;;;;11.73;6.80;;;;;;;18.88;59.97;101180.44;4900555;28;97152;-56
2023/09/11 06:30:00;;;;;;;13.13;7.73;;;;;;;18.93;59.71;101183.13;4902138;28;98210;-57
2023/09/11 06:32:26;;;;;;;8.40;6.67;;;;;;;18.96;59.74;101182.03;4901383;28;97228;-54
2023/09/11 06:34:51;;;;;;;6.90;6.10;;;;;;;19.00;59.72;101190.81;4903418;28;97251;-56
2023/09/11 06:37:16;;;;;;;7.57;6.00;;;;;;;19.07;59.78;101186.63;4899656;28;100415;-55
2023/09/11 06:39:42;;;;;;;6.70;5.90;;;;;;;19.12;59.81;101180.94;4903227;28;96750;-58
2023/09/11 06:42:07;;;;;;;6.60;5.90;;;;;;;19.16;59.80;101181.38;4903447;28;96513;-57
2023/09/11 06:44:33;;;;;;;6.97;6.27;;;;;;;19.24;59.95;101189.84;4903818;28;97285;-56
2023/09/11 06:46:58;;;;;;;11.43;6.00;;;;;;;19.27;59.99;101177.59;4902686;28;97778;-54
2023/09/11 06:49:24;;;;;;;5.83;5.33;;;;;;;19.33;60.18;101181.03;4901984;28;97702;-56
2023/09/11 06:51:49;;;;;;;7.70;5.80;;;;;;;19.37;59.98;101176.63;4903834;28;97113;-57
2023/09/11 06:54:14;;;;;;;7.50;6.47;;;;;;;19.42;59.96;101178.53;4900614;28;97275;-54
2023/09/11 06:56:40;;;;;;;7.23;5.87;;;;;;;19.50;60.11;101175.09;4902033;28;97805;-55
2023/09/11 06:59:06;;;;;;;6.97;6.37;;;;;;;19.56;60.07;101178.50;4902157;28;99135;-55
2023/09/11 07:01:32;;;;;;;7.83;7.03;;;;;;;19.60;60.22;101173.31;4902955;28;96598;-56
2023/09/11 07:03:57;;;;;;;7.47;6.77;;;;;;;19.69;60.28;101184.03;4900014;28;97050;-54
2023/09/11 07:06:23;;;;;;;8.77;7.83;;;;;;;19.78;60.23;101172.41;4899995;28;96633;-55
2023/09/11 07:08:48;;;;;;;8.77;8.00;;;;;;;19.85;60.42;101183.66;4901319;28;97048;-57
2023/09/11 07:11:16;;;;;;;8.13;6.60;;;;;;;19.95;60.74;101176.28;4899957;28;99969;-54
2023/09/11 07:13:42;;;;;;;8.13;7.37;;;;;;;20.03;60.58;101181.94;4904838;28;96771;-55
2023/09/11 07:16:07;;;;;;;16.97;8.13;;;;;;;20.12;60.60;101175.84;4900314;28;104512;-55
2023/09/11 07:18:33;;;;;;;16.47;8.00;;;;;;;20.21;60.65;101180.25;4901255;28;97180;-55
2023/09/11 07:20:58;;;;;;;36.80;8.20;;;;;;;20.28;60.73;101177.53;4901072;28;97139;-55
2023/09/11 07:23:26;;;;;;;17.33;7.33;;;;;;;20.37;60.71;101174.25;4898974;28;97409;-57
2023/09/11 07:25:51;;;;;;;7.80;7.07;;;;;;;20.42;60.76;101164.94;4898049;28;97097;-54
2023/09/11 07:28:17;;;;;;;11.83;6.93;;;;;;;20.51;60.97;101170.03;4902239;28;97104;-55
2023/09/11 07:30:44;;;;;;;8.47;7.67;;;;;;;20.62;60.97;101172.53;4899371;28;96922;-55
2023/09/11 07:33:10;;;;;;;8.10;7.30;;;;;;;20.70;60.75;101164.94;4899779;28;96858;-56
2023/09/11 07:35:35;;;;;;;8.10;7.40;;;;;;;20.79;60.88;101172.06;4893189;28;100380;-56
2023/09/11 07:38:01;;;;;;;8.73;7.83;;;;;;;20.91;60.76;101168.41;4906572;28;101001;-55
2023/09/11 07:40:26;;;;;;;8.73;7.70;;;;;;;21.02;60.89;101170.13;4898427;28;97205;-56
2023/09/11 07:42:54;;;;;;;8.83;7.63;;;;;;;21.13;61.11;101171.88;4902984;28;96692;-56
2023/09/11 07:45:20;;;;;;;7.80;7.10;;;;;;;21.24;61.03;101163.16;4897851;28;98505;-54
2023/09/11 07:47:45;;;;;;;9.83;8.87;;;;;;;21.36;61.22;101165.06;4902322;28;97531;-55
2023/09/11 07:50:10;;;;;;;8.73;7.90;;;;;;;21.46;61.20;101156.88;4901275;28;97207;-56
2023/09/11 07:52:36;;;;;;;10.47;7.60;;;;;;;21.57;61.11;101151.69;4900322;28;100640;-57
2023/09/11 07:55:02;;;;;;;8.70;7.90;;;;;;;21.69;61.09;101146.44;4899583;28;99820;-55
2023/09/11 07:57:30;;;;;;;8.70;7.90;;;;;;;21.80;61.22;101145.38;4900294;28;100056;-55
2023/09/11 07:59:56;;;;;;;9.30;7.60;;;;;;;21.94;61.25;101144.66;4898972;28;96714;-55
2023/09/11 08:02:22;;;;;;;8.97;8.00;;;;;;;22.03;61.34;101141.28;4900751;28;96839;-54
2023/09/11 08:04:47;;;;;;;13.60;8.33;;;;;;;22.15;61.34;101139.59;4900381;28;99775;-55
2023/09/11 08:07:12;;;;;;;7.47;6.77;;;;;;;22.26;61.42;101139.19;4902836;28;97339;-57
2023/09/11 08:09:38;;;;;;;7.80;7.00;;;;;;;22.37;61.07;101141.63;4893720;28;97099;-55
2023/09/11 08:12:03;;;;;;;7.37;6.50;;;;;;;22.52;61.32;101134.50;4900470;28;97006;-56
2023/09/11 08:14:29;;;;;;;10.87;7.00;;;;;;;22.64;61.41;101130.00;4897546;28;97388;-55
2023/09/11 08:16:54;;;;;;;8.57;7.50;;;;;;;22.73;61.20;101132.97;4898072;28;97243;-55
2023/09/11 08:19:19;;;;;;;7.73;7.03;;;;;;;22.88;61.09;101129.34;4894601;28;97390;-56
2023/09/11 08:21:46;;;;;;;10.27;7.17;;;;;;;23.03;61.03;101130.03;4898736;28;97560;-55
2023/09/11 08:24:11;;;;;;;7.90;7.20;;;;;;;23.21;60.90;101135.75;4898030;28;99397;-55
2023/09/11 08:26:38;;;;;;;7.93;7.23;;;;;;;23.37;60.70;101140.72;4893230;28;98749;-56
2023/09/11 08:29:04;;;;;;;8.37;7.57;;;;;;;23.56;60.47;101138.19;4899578;28;97488;-57
2023/09/11 08:31:29;;;;;;;6.90;6.30;;;;;;;23.74;60.55;101130.59;4896788;28;96769;-55
2023/09/11 08:33:55;;;;;;;8.20;7.40;;;;;;;23.92;60.42;101129.28;4899611;28;97185;-55
2023/09/11 08:36:20;;;;;;;7.17;6.57;;;;;;;24.09;60.36;101137.78;4898404;28;98483;-56
2023/09/11 08:38:47;;;;;;;7.53;6.83;;;;;;;24.30;60.20;101141.00;4897823;28;97337;-56
2023/09/11 08:41:13;;;;;;;7.60;6.70;;;;;;;24.51;59.86;101140.59;4899241;28;96983;-56
2023/09/11 08:43:39;;;;;;;7.77;7.03;;;;;;;24.71;59.77;101141.50;4898461;28;96850;-55
2023/09/11 08:46:07;;;;;;;8.33;6.33;;;;;;;24.90;59.44;101141.69;4900609;28;98979;-55
2023/09/11 08:48:36;;;;;;;7.60;6.83;;;;;;;25.09;59.28;101133.38;4898316;28;97945;-58
2023/09/11 08:51:08;;;;;;;6.60;5.90;;;;;;;25.27;58.92;101137.63;4899318;28;97027;-55
2023/09/11 08:53:35;;;;;;;7.47;6.80;;;;;;;25.47;58.72;101136.41;4897619;28;99242;-56
2023/09/11 08:56:01;;;;;;;6.77;6.17;;;;;;;25.64;58.43;101130.00;4903869;28;100425;-57
2023/09/11 08:58:31;;;;;;;9.23;6.47;;;;;;;25.82;58.00;101134.19;4899925;28;96888;-57
2023/09/11 09:00:57;;;;;;;10.13;5.70;;;;;;;25.98;57.47;101130.53;4902943;28;97031;-55
2023/09/11 09:03:24;;;;;;;7.60;6.90;;;;;;;26.17;57.49;101127.03;4899563;28;98775;-56
2023/09/11 09:05:49;;;;;;;6.43;5.83;;;;;;;26.34;57.23;101126.19;4899571;28;97116;-57
2023/09/11 09:08:15;;;;;;;7.47;6.23;;;;;;;26.50;56.94;101122.47;4900872;28;97082;-56
2023/09/11 09:10:42;;;;;;;6.07;5.47;;;;;;;26.65;56.35;101110.88;4899997;28;96783;-55
2023/09/11 09:13:09;;;;;;;10.00;6.17;;;;;;;26.78;56.43;101111.81;4899358;28;97465;-55
2023/09/11 09:15:40;;;;;;;7.90;5.80;;;;;;;26.89;56.44;101111.94;4902381;28;97193;-57
2023/09/11 09:18:05;;;;;;;6.23;5.63;;;;;;;27.03;56.33;101109.38;4901659;28;97186;-58
2023/09/11 09:20:32;;;;;;;8.77;6.07;;;;;;;27.16;56.15;101108.91;4902270;28;97304;-56
2023/09/11 09:22:59;;;;;;;10.73;6.77;;;;;;;27.30;55.87;101113.47;4900635;28;98236;-56
2023/09/11 09:25:26;;;;;;;8.50;6.23;;;;;;;27.44;55.29;101111.69;4899755;28;96704;-56
2023/09/11 09:27:52;;;;;;;8.40;5.70;;;;;;;27.57;54.78;101112.50;4904213;28;97132;-57
2023/09/11 09:30:23;;;;;;;11.00;5.40;;;;;;;27.66;54.66;101106.06;4899677;28;96653;-56
2023/09/11 09:32:49;;;;;;;6.53;5.23;;;;;;;27.75;54.52;101108.13;4898606;28;96998;-55
2023/09/11 09:35:18;;;;;;;5.43;4.93;;;;;;;27.82;54.36;101105.13;4897231;28;97977;-56
2023/09/11 09:37:54;;;;;;;6.77;4.97;;;;;;;27.95;53.44;101101.78;4917224;28;96809;-56
2023/09/11 09:40:39;;;;;;;9.07;5.63;;;;;;;28.12;53.37;101101.53;4897919;28;96940;-58
2023/09/11 09:43:08;;;;;;;6.57;5.20;;;;;;;28.26;53.16;101092.50;4901947;28;97643;-56
2023/09/11 09:45:44;;;;;;;5.63;4.87;;;;;;;28.40;53.05;101094.16;4898623;28;96576;-55
2023/09/11 09:48:15;;;;;;;7.37;5.00;;;;;;;28.49;52.19;101092.59;4901213;28;97435;-56
2023/09/11 09:51:01;;;;;;;6.83;4.60;;;;;;;28.56;51.76;101092.41;4899903;28;97292;-55
2023/09/11 09:53:35;;;;;;;5.63;5.10;;;;;;;28.63;51.45;101090.75;4901330;28;97333;-56
2023/09/11 09:56:07;;;;;;;7.20;5.30;;;;;;;28.74;51.94;101092.88;4900747;28;97320;-55
2023/09/11 09:58:43;;;;;;;9.20;5.40;;;;;;;28.85;51.59;101092.16;4903242;28;97016;-56
2023/09/11 10:01:17;;;;;;;6.30;4.70;;;;;;;28.93;51.36;101084.19;4901089;28;97348;-56
2023/09/11 10:03:51;;;;;;;5.97;5.30;;;;;;;29.02;51.01;101088.25;4899119;28;97867;-56
2023/09/11 10:06:19;;;;;;;5.63;4.70;;;;;;;29.09;51.30;101081.63;4901257;28;97299;-56
2023/09/11 10:08:45;;;;;;;6.60;5.40;;;;;;;29.17;51.01;101080.06;4895814;28;97130;-57
2023/09/11 10:11:27;;;;;;;8.30;4.80;;;;;;;29.24;49.91;101073.44;4900423;28;97269;-56
2023/09/11 10:13:57;;;;;;;8.77;4.50;;;;;;;29.33;50.26;101080.34;4900318;28;100691;-58
2023/09/11 10:16:24;;;;;;;5.30;4.80;;;;;;;29.39;50.33;101066.53;4902442;28;98507;-57
2023/09/11 10:18:52;;;;;;;6.93;5.23;;;;;;;29.46;50.40;101068.38;4899514;28;97591;-56
2023/09/11 10:21:18;;;;;;;7.93;4.90;;;;;;;29.52;50.01;101060.22;4899957;28;97333;-57
2023/09/11 10:23:44;;;;;;;8.17;4.77;;;;;;;29.58;49.99;101055.66;4899229;28;97021;-56
2023/09/11 10:26:16;;;;;;;5.87;4.73;;;;;;;29.65;50.04;101057.53;4898781;28;97197;-55
2023/09/11 10:28:48;;;;;;;5.90;4.90;;;;;;;29.71;49.95;101059.25;4902483;28;97028;-57
2023/09/11 10:31:20;;;;;;;9.90;4.63;;;;;;;29.76;48.73;101053.22;4898933;28;96735;-56
2023/09/11 10:33:50;;;;;;;7.03;4.43;;;;;;;29.81;49.54;101052.09;4899311;28;98302;-57
2023/09/11 10:36:20;;;;;;;7.17;4.80;;;;;;;29.90;48.94;101048.38;4901898;28;97218;-57
2023/09/11 10:38:46;;;;;;;8.57;4.23;;;;;;;30.00;48.61;101037.63;4898645;28;96977;-56
2023/09/11 10:41:13;;;;;;;12.90;4.50;;;;;;;30.10;48.42;101043.16;4899728;28;97235;-57
2023/09/11 10:43:38;;;;;;;7.57;4.13;;;;;;;30.22;48.06;101041.00;4898673;28;97491;-57
2023/09/11 10:46:22;;;;;;;7.70;4.87;;;;;;;30.36;47.14;101033.34;4897864;28;98722;-57
2023/09/11 10:48:50;;;;;;;7.43;4.67;;;;;;;30.46;47.56;101036.75;4901140;28;97290;-56
2023/09/11 10:51:16;;;;;;;10.47;4.20;;;;;;;30.55;47.42;101038.66;4899357;28;97080;-56
2023/09/11 10:53:42;;;;;;;6.33;4.33;;;;;;;30.56;46.86;101025.94;4896610;28;97328;-57
2023/09/11 10:56:08;;;;;;;11.77;4.30;;;;;;;30.59;47.09;101021.84;4900740;28;96775;-57
2023/09/11 10:58:34;;;;;;;8.93;4.73;;;;;;;30.67;47.01;101010.94;4897972;28;97063;-57
2023/09/11 11:01:03;;;;;;;9.30;4.27;;;;;;;30.75;46.79;101022.75;4898060;28;97397;-57
2023/09/11 11:03:29;;;;;;;7.20;3.73;;;;;;;30.85;46.67;101020.44;4899010;28;97651;-57
2023/09/11 11:05:57;;;;;;;10.87;4.60;;;;;;;30.99;46.24;101021.25;4900093;28;100290;-57
2023/09/11 11:08:23;;;;;;;9.37;4.67;;;;;;;31.10;46.13;101028.94;4898875;28;97172;-57
2023/09/11 11:10:55;;;;;;;9.97;5.07;;;;;;;31.20;45.35;101020.22;4901757;28;97100;-58
2023/09/11 11:13:21;;;;;;;6.37;4.53;;;;;;;31.29;45.65;101012.84;4898989;28;98164;-58
2023/09/11 11:15:47;;;;;;;8.43;4.70;;;;;;;31.40;45.50;101020.56;4900718;28;97368;-58
2023/09/11 11:18:26;;;;;;;8.10;4.43;;;;;;;31.48;44.34;101007.50;4901761;28;96993;-56
2023/09/11 11:21:08;;;;;;;6.43;4.63;;;;;;;31.57;44.34;101005.81;4899512;28;97205;-57
2023/09/11 11:23:53;;;;;;;5.97;3.70;;;;;;;31.72;44.96;101008.00;4898412;28;98185;-57
2023/09/11 11:26:19;;;;;;;7.20;3.80;;;;;;;31.85;44.73;100995.88;4898611;28;97103;-56
2023/09/11 11:28:45;;;;;;;8.70;3.70;;;;;;;32.00;44.52;101005.91;4902633;28;97304;-57